createdAt,value
2018-02-07T00:01:28.653Z,20.90
2018-02-07T00:02:28.557Z,20.70
2018-02-07T00:03:28.534Z,21.50
2018-02-07T00:04:28.543Z,21.10
2018-02-07T00:05:28.550Z,20.90
2018-02-07T00:06:29.017Z,20.50
2018-02-07T00:07:29.276Z,22.10
2018-02-07T00:10:28.921Z,22.30
2018-02-07T00:13:28.637Z,21.70
2018-02-07T00:14:28.632Z,21.60
2018-02-07T00:15:28.648Z,21.70
2018-02-07T00:16:28.651Z,20.70
2018-02-07T00:17:28.661Z,21.70
2018-02-07T00:18:28.681Z,21.90
2018-02-07T00:19:29.116Z,22.20
2018-02-07T00:20:28.692Z,21.40
2018-02-07T00:21:28.728Z,22.10
2018-02-07T00:23:28.927Z,21.40
2018-02-07T00:27:28.783Z,21.60
2018-02-07T00:28:28.761Z,22.00
2018-02-07T00:29:28.771Z,22.00
2018-02-07T00:30:29.002Z,22.60
2018-02-07T00:31:28.841Z,21.80
2018-02-07T00:32:28.900Z,22.60
2018-02-07T00:33:28.807Z,21.90
2018-02-07T00:34:28.829Z,23.60
2018-02-07T00:35:28.989Z,23.50
2018-02-07T00:37:28.848Z,22.30
2018-02-07T00:38:28.859Z,21.80
2018-02-07T00:39:28.919Z,22.60
2018-02-07T00:40:29.205Z,22.40
2018-02-07T00:41:29.419Z,23.10
2018-02-07T00:42:29.308Z,22.50
2018-02-07T00:43:29.297Z,22.60
2018-02-07T00:45:29.185Z,23.40
2018-02-07T00:46:28.990Z,23.30
2018-02-07T00:48:29.112Z,22.80
2018-02-07T00:49:28.979Z,23.00
2018-02-07T00:51:29.193Z,23.30
2018-02-07T00:52:28.980Z,22.80
2018-02-07T00:53:29.673Z,24.10
2018-02-07T00:54:29.138Z,22.40
2018-02-07T00:56:30.031Z,22.90
2018-02-07T00:57:29.058Z,23.30
2018-02-07T00:58:29.054Z,23.70
2018-02-07T00:59:29.045Z,21.70
2018-02-07T01:00:29.054Z,23.60
2018-02-07T01:01:29.066Z,23.40
2018-02-07T01:02:29.072Z,23.60
2018-02-07T01:04:29.557Z,23.90
2018-02-07T01:05:29.100Z,22.40
2018-02-07T01:06:29.311Z,24.40
2018-02-07T01:07:29.122Z,22.90
2018-02-07T01:08:29.138Z,23.10
2018-02-07T01:09:29.274Z,23.00
2018-02-07T01:10:29.535Z,23.90
2018-02-07T01:11:29.172Z,23.20
2018-02-07T01:12:29.166Z,23.00
2018-02-07T01:14:29.201Z,23.20
2018-02-07T01:15:29.311Z,22.40
2018-02-07T01:16:29.202Z,23.00
2018-02-07T01:18:29.357Z,23.50
2018-02-07T01:19:29.687Z,23.30
2018-02-07T01:20:29.236Z,23.10
2018-02-07T01:22:29.280Z,23.40
2018-02-07T01:23:29.263Z,23.80
2018-02-07T01:27:29.939Z,23.20
2018-02-07T01:29:29.348Z,23.60
2018-02-07T01:30:29.327Z,23.10
2018-02-07T01:31:30.327Z,23.80
2018-02-07T01:32:29.363Z,24.90
2018-02-07T01:33:29.437Z,23.50
2018-02-07T01:34:29.363Z,24.10
2018-02-07T01:35:29.383Z,25.00
2018-02-07T01:36:30.015Z,23.90
2018-02-07T01:37:29.484Z,24.20
2018-02-07T01:38:29.417Z,24.40
2018-02-07T01:39:29.756Z,23.30
2018-02-07T01:40:29.478Z,24.80
2018-02-07T01:41:29.426Z,23.50
2018-02-07T01:42:29.898Z,24.20
2018-02-07T01:43:30.022Z,23.10
2018-02-07T01:45:29.465Z,22.50
2018-02-07T01:46:29.480Z,24.00
2018-02-07T01:47:29.480Z,23.70
2018-02-07T01:48:29.490Z,23.90
2018-02-07T01:49:29.502Z,23.20
2018-02-07T01:50:29.733Z,24.60
2018-02-07T01:51:29.516Z,23.50
2018-02-07T01:52:29.915Z,23.70
2018-02-07T01:53:29.730Z,24.10
2018-02-07T01:54:29.547Z,23.50
2018-02-07T01:55:30.519Z,23.60
2018-02-07T01:56:30.431Z,23.90
2018-02-07T01:59:29.637Z,23.80
2018-02-07T02:00:29.609Z,23.40
2018-02-07T02:01:29.979Z,23.80
2018-02-07T02:02:29.676Z,24.10
2018-02-07T02:03:31.263Z,23.70
2018-02-07T02:04:29.996Z,23.40
2018-02-07T02:05:30.690Z,23.30
2018-02-07T02:06:30.165Z,23.80
2018-02-07T02:07:30.262Z,23.30
2018-02-07T02:09:29.880Z,22.60
2018-02-07T02:10:29.938Z,22.60
2018-02-07T02:11:29.963Z,23.30
2018-02-07T02:12:29.705Z,24.50
2018-02-07T02:13:30.817Z,24.00
2018-02-07T02:14:29.732Z,23.10
2018-02-07T02:16:31.396Z,23.30
2018-02-07T02:17:30.363Z,24.60
2018-02-07T02:21:30.168Z,23.40
2018-02-07T02:22:29.867Z,23.50
2018-02-07T02:24:29.815Z,23.40
2018-02-07T02:25:29.884Z,24.20
2018-02-07T02:26:30.012Z,23.30
2018-02-07T02:27:30.170Z,23.90
2018-02-07T02:30:30.702Z,23.30
2018-02-07T02:31:29.877Z,23.60
2018-02-07T02:32:29.887Z,23.00
2018-02-07T02:34:30.309Z,23.10
2018-02-07T02:35:30.462Z,24.60
2018-02-07T02:36:29.922Z,24.20
2018-02-07T02:37:29.931Z,23.10
2018-02-07T02:38:29.948Z,23.10
2018-02-07T02:39:30.003Z,22.90
2018-02-07T02:40:29.961Z,23.60
2018-02-07T02:41:31.632Z,24.10
2018-02-07T02:42:30.358Z,24.50
2018-02-07T02:44:29.997Z,23.20
2018-02-07T02:45:30.000Z,23.80
2018-02-07T02:46:30.013Z,23.00
2018-02-07T02:47:30.104Z,23.60
2018-02-07T02:48:30.027Z,23.50
2018-02-07T02:49:30.039Z,24.00
2018-02-07T02:50:30.168Z,24.40
2018-02-07T02:51:30.947Z,24.10
2018-02-07T02:52:30.805Z,23.90
2018-02-07T02:53:30.078Z,23.10
2018-02-07T02:54:30.177Z,24.40
2018-02-07T02:55:30.093Z,23.60
2018-02-07T02:56:30.120Z,24.20
2018-02-07T02:57:30.233Z,23.90
2018-02-07T02:59:30.756Z,23.90
2018-02-07T03:00:31.004Z,23.60
2018-02-07T03:01:31.365Z,23.60
2018-02-07T03:02:30.260Z,24.20
2018-02-07T03:03:30.426Z,23.80
2018-02-07T03:04:32.173Z,23.80
2018-02-07T03:05:30.305Z,24.10
2018-02-07T03:07:30.589Z,24.00
2018-02-07T03:08:30.329Z,23.80
2018-02-07T03:09:30.450Z,23.80
2018-02-07T03:10:30.225Z,24.20
2018-02-07T03:13:30.406Z,23.80
2018-02-07T03:14:30.966Z,23.70
2018-02-07T03:15:30.441Z,24.20
2018-02-07T03:16:31.283Z,23.80
2018-02-07T03:17:30.724Z,23.90
2018-02-07T03:18:30.827Z,23.60
2018-02-07T03:19:30.306Z,24.00
2018-02-07T03:20:30.952Z,24.00
2018-02-07T03:22:30.419Z,23.90
2018-02-07T03:23:30.419Z,23.60
2018-02-07T03:25:30.367Z,24.10
2018-02-07T03:26:30.498Z,23.50
2018-02-07T03:27:30.378Z,24.10
2018-02-07T03:28:30.519Z,24.70
2018-02-07T03:29:30.620Z,24.00
2018-02-07T03:31:30.942Z,24.10
2018-02-07T03:32:30.486Z,24.60
2018-02-07T03:33:30.430Z,24.50
2018-02-07T03:34:30.445Z,24.00
2018-02-07T03:35:30.460Z,24.90
2018-02-07T03:36:30.457Z,24.90
2018-02-07T03:37:30.474Z,24.30
2018-02-07T03:39:30.987Z,24.60
2018-02-07T03:40:31.055Z,23.90
2018-02-07T03:43:30.574Z,24.40
2018-02-07T03:44:30.530Z,25.20
2018-02-07T03:45:30.538Z,23.70
2018-02-07T03:48:31.119Z,24.40
2018-02-07T03:49:30.924Z,25.20
2018-02-07T03:50:30.606Z,24.60
2018-02-07T03:51:31.026Z,24.20
2018-02-07T03:52:30.659Z,24.50
2018-02-07T03:54:30.882Z,24.70
2018-02-07T03:55:30.682Z,23.90
2018-02-07T03:56:30.786Z,25.20
2018-02-07T03:57:30.647Z,24.60
2018-02-07T03:58:30.757Z,24.00
2018-02-07T03:59:30.797Z,25.80
2018-02-07T04:05:30.996Z,24.90
2018-02-07T04:06:30.725Z,24.50
2018-02-07T04:08:30.746Z,25.20
2018-02-07T04:09:30.752Z,24.60
2018-02-07T04:10:31.220Z,25.70
2018-02-07T04:11:31.179Z,24.60
2018-02-07T04:12:31.047Z,24.80
2018-02-07T04:13:30.790Z,24.60
2018-02-07T04:14:30.809Z,24.30
2018-02-07T04:16:30.868Z,25.60
2018-02-07T04:17:31.320Z,24.60
2018-02-07T04:18:31.590Z,24.20
2018-02-07T04:19:31.095Z,25.00
2018-02-07T04:21:30.865Z,24.20
2018-02-07T04:22:30.869Z,24.60
2018-02-07T04:23:30.878Z,25.50
2018-02-07T04:24:30.934Z,24.60
2018-02-07T04:28:30.962Z,24.20
2018-02-07T04:29:31.186Z,24.40
2018-02-07T04:30:31.822Z,24.40
2018-02-07T04:31:30.946Z,24.10
2018-02-07T04:32:30.955Z,24.20
2018-02-07T04:33:31.013Z,24.10
2018-02-07T04:34:30.986Z,24.50
2018-02-07T04:35:31.425Z,24.20
2018-02-07T04:36:31.853Z,23.70
2018-02-07T04:37:31.615Z,23.90
2018-02-07T04:38:31.044Z,25.00
2018-02-07T04:40:31.377Z,24.50
2018-02-07T04:41:31.839Z,23.80
2018-02-07T04:42:31.110Z,24.40
2018-02-07T04:43:31.051Z,25.70
2018-02-07T04:44:31.082Z,23.90
2018-02-07T04:45:31.066Z,23.40
2018-02-07T04:46:31.333Z,23.70
2018-02-07T04:47:31.084Z,23.80
2018-02-07T04:51:31.221Z,24.80
2018-02-07T04:52:31.592Z,24.50
2018-02-07T04:53:31.245Z,24.60
2018-02-07T04:55:31.233Z,23.50
2018-02-07T04:56:31.175Z,24.40
2018-02-07T04:57:31.335Z,24.00
2018-02-07T04:58:31.553Z,24.40
2018-02-07T04:59:31.573Z,22.80
2018-02-07T05:00:31.299Z,24.90
2018-02-07T05:02:31.891Z,23.50
2018-02-07T05:03:31.680Z,24.80
2018-02-07T05:04:31.775Z,23.60
2018-02-07T05:05:31.278Z,23.20
2018-02-07T05:06:31.477Z,23.80
2018-02-07T05:07:31.282Z,23.50
2018-02-07T05:08:31.501Z,23.60
2018-02-07T05:10:31.642Z,24.20
2018-02-07T05:12:31.298Z,23.50
2018-02-07T05:13:32.527Z,23.10
2018-02-07T05:14:31.550Z,23.90
2018-02-07T05:16:31.354Z,23.90
2018-02-07T05:18:31.400Z,23.80
2018-02-07T05:19:31.362Z,23.10
2018-02-07T05:20:32.083Z,24.50
2018-02-07T05:21:31.391Z,23.70
2018-02-07T05:22:31.485Z,24.10
2018-02-07T05:23:31.528Z,23.60
2018-02-07T05:24:31.401Z,23.60
2018-02-07T05:27:31.518Z,24.30
2018-02-07T05:28:31.502Z,24.10
2018-02-07T05:29:31.443Z,25.20
2018-02-07T05:31:31.512Z,23.80
2018-02-07T05:32:31.467Z,23.70
2018-02-07T05:33:31.577Z,24.20
2018-02-07T05:34:31.702Z,23.30
2018-02-07T05:35:31.508Z,25.00
2018-02-07T05:36:31.805Z,23.50
2018-02-07T05:37:32.124Z,23.00
2018-02-07T05:38:31.552Z,24.40
2018-02-07T05:39:31.533Z,24.60
2018-02-07T05:40:31.536Z,24.20
2018-02-07T05:41:32.479Z,25.00
2018-02-07T05:42:32.576Z,24.10
2018-02-07T05:43:32.478Z,23.60
2018-02-07T05:44:31.571Z,25.00
2018-02-07T05:45:31.762Z,23.80
2018-02-07T05:46:31.786Z,25.20
2018-02-07T05:47:31.593Z,23.70
2018-02-07T05:48:31.601Z,25.90
2018-02-07T05:49:32.435Z,24.40
2018-02-07T05:50:32.457Z,24.00
2018-02-07T05:51:31.777Z,23.60
2018-02-07T05:52:32.159Z,24.20
2018-02-07T05:53:32.167Z,24.30
2018-02-07T05:54:32.936Z,24.50
2018-02-07T05:56:33.154Z,24.30
2018-02-07T05:59:31.904Z,24.30
2018-02-07T06:00:31.699Z,24.90
2018-02-07T06:01:33.138Z,25.00
2018-02-07T06:02:32.566Z,24.00
2018-02-07T06:04:32.300Z,23.50
2018-02-07T06:06:32.809Z,24.00
2018-02-07T06:08:31.831Z,24.40
2018-02-07T06:09:32.746Z,24.50
2018-02-07T06:10:31.907Z,24.40
2018-02-07T06:11:32.238Z,24.40
2018-02-07T06:12:31.812Z,24.40
2018-02-07T06:14:31.813Z,24.00
2018-02-07T06:15:33.432Z,24.00
2018-02-07T06:18:31.883Z,24.50
2018-02-07T06:19:33.042Z,24.80
2018-02-07T06:20:31.890Z,23.50
2018-02-07T06:21:31.906Z,23.70
2018-02-07T06:22:31.898Z,23.80
2018-02-07T06:23:31.889Z,23.10
2018-02-07T06:24:31.998Z,24.20
2018-02-07T06:25:31.905Z,23.90
2018-02-07T06:29:32.680Z,23.60
2018-02-07T06:30:32.854Z,24.80
2018-02-07T06:31:31.953Z,24.00
2018-02-07T06:32:32.005Z,22.50
2018-02-07T06:33:32.304Z,23.90
2018-02-07T06:34:31.983Z,24.20
2018-02-07T06:35:33.100Z,24.60
2018-02-07T06:36:32.843Z,23.90
2018-02-07T06:37:31.999Z,24.80
2018-02-07T06:38:32.862Z,27.70
2018-02-07T06:40:33.151Z,25.30
2018-02-07T06:41:33.164Z,23.20
2018-02-07T06:44:32.110Z,23.40
2018-02-07T06:45:34.004Z,24.30
2018-02-07T06:48:32.625Z,23.90
2018-02-07T06:49:32.621Z,23.30
2018-02-07T06:51:32.116Z,22.50
2018-02-07T06:52:32.268Z,23.60
2018-02-07T06:53:32.143Z,22.60
2018-02-07T06:54:32.155Z,23.10
2018-02-07T06:55:32.152Z,22.80
2018-02-07T06:56:32.173Z,22.90
2018-02-07T06:57:32.162Z,23.40
2018-02-07T06:58:32.190Z,23.20
2018-02-07T06:59:32.225Z,22.70
2018-02-07T07:00:32.775Z,22.50
2018-02-07T07:01:32.278Z,23.00
2018-02-07T07:02:32.231Z,21.30
2018-02-07T07:05:32.253Z,22.30
2018-02-07T07:06:32.410Z,22.50
2018-02-07T07:07:32.252Z,21.50
2018-02-07T07:14:32.372Z,22.70
2018-02-07T07:16:33.428Z,22.10
2018-02-07T07:17:33.005Z,22.20
2018-02-07T07:18:33.339Z,22.90
2018-02-07T07:19:32.353Z,22.40
2018-02-07T07:20:33.250Z,21.80
2018-02-07T07:21:32.373Z,22.70
2018-02-07T07:23:32.389Z,21.90
2018-02-07T07:24:32.552Z,21.70
2018-02-07T07:25:33.231Z,22.00
2018-02-07T07:26:33.769Z,23.20
2018-02-07T07:29:32.927Z,23.90
2018-02-07T07:30:32.821Z,21.70
2018-02-07T07:31:32.482Z,22.30
2018-02-07T07:32:32.879Z,21.80
2018-02-07T07:33:32.535Z,23.10
2018-02-07T07:34:32.850Z,22.70
2018-02-07T07:35:32.510Z,23.10
2018-02-07T07:36:33.133Z,22.50
2018-02-07T07:37:32.586Z,22.00
2018-02-07T07:38:32.711Z,22.60
2018-02-07T07:40:32.517Z,22.00
2018-02-07T07:42:34.172Z,22.10
2018-02-07T07:43:32.955Z,22.80
2018-02-07T07:44:34.229Z,23.00
2018-02-07T07:46:33.226Z,24.10
2018-02-07T07:47:32.579Z,22.10
2018-02-07T07:48:32.805Z,21.90
2018-02-07T07:49:32.633Z,21.80
2018-02-07T07:50:32.715Z,22.60
2018-02-07T07:52:33.203Z,21.40
2018-02-07T07:53:33.483Z,21.70
2018-02-07T07:55:33.675Z,22.20
2018-02-07T07:56:33.421Z,21.20
2018-02-07T07:57:33.364Z,22.80
2018-02-07T07:58:32.710Z,22.40
2018-02-07T08:00:33.503Z,22.50
2018-02-07T08:01:33.485Z,21.90
2018-02-07T08:04:33.653Z,22.10
2018-02-07T08:05:33.101Z,22.20
2018-02-07T08:06:33.197Z,21.80
2018-02-07T08:07:32.719Z,22.20
2018-02-07T08:08:33.236Z,21.60
2018-02-07T08:09:32.737Z,22.60
2018-02-07T08:10:32.852Z,22.70
2018-02-07T08:11:32.971Z,21.30
2018-02-07T08:12:32.857Z,21.90
2018-02-07T08:13:34.500Z,22.20
2018-02-07T08:15:33.517Z,22.40
2018-02-07T08:16:33.801Z,22.00
2018-02-07T08:20:34.231Z,23.40
2018-02-07T08:21:34.692Z,21.80
2018-02-07T08:22:33.816Z,21.20
2018-02-07T08:23:32.884Z,22.50
2018-02-07T08:24:32.926Z,21.30
2018-02-07T08:26:33.589Z,22.10
2018-02-07T08:27:33.510Z,21.60
2018-02-07T08:28:33.514Z,22.80
2018-02-07T08:30:34.214Z,21.20
2018-02-07T08:31:35.803Z,21.30
2018-02-07T08:32:33.768Z,22.10
2018-02-07T08:33:33.564Z,21.90
2018-02-07T08:34:32.945Z,21.10
2018-02-07T08:35:32.979Z,22.00
2018-02-07T08:37:33.363Z,21.50
2018-02-07T08:38:33.160Z,22.30
2018-02-07T08:39:32.976Z,20.60
2018-02-07T08:40:33.127Z,21.00
2018-02-07T08:42:33.593Z,21.40
2018-02-07T08:46:34.346Z,21.00
2018-02-07T08:47:33.158Z,21.50
2018-02-07T08:48:33.298Z,21.30
2018-02-07T08:49:33.518Z,21.30
2018-02-07T08:50:34.993Z,21.60
2018-02-07T08:52:33.319Z,21.40
2018-02-07T08:53:35.342Z,21.70
2018-02-07T08:54:33.377Z,21.30
2018-02-07T08:57:33.782Z,21.30
2018-02-07T08:59:36.438Z,21.20
2018-02-07T09:02:33.522Z,20.30
2018-02-07T09:03:33.920Z,20.60
2018-02-07T09:04:33.629Z,20.10
2018-02-07T09:05:33.866Z,20.10
2018-02-07T09:06:34.207Z,21.20
2018-02-07T09:07:33.914Z,22.00
2018-02-07T09:08:34.178Z,22.70
2018-02-07T09:10:33.920Z,22.00
2018-02-07T09:12:33.397Z,21.50
2018-02-07T09:13:33.915Z,20.60
2018-02-07T09:14:34.037Z,20.90
2018-02-07T09:15:34.788Z,21.10
2018-02-07T09:16:33.474Z,20.40
2018-02-07T09:18:34.252Z,20.90
2018-02-07T09:20:34.432Z,21.00
2018-02-07T09:22:34.468Z,20.90
2018-02-07T09:24:34.516Z,20.50
2018-02-07T09:25:33.345Z,21.00
2018-02-07T09:27:33.391Z,21.00
2018-02-07T09:28:33.392Z,21.00
2018-02-07T09:29:33.795Z,20.10
2018-02-07T09:30:33.394Z,20.40
2018-02-07T09:31:33.760Z,21.30
2018-02-07T09:32:33.496Z,20.30
2018-02-07T09:33:37.721Z,20.20
2018-02-07T09:34:34.230Z,20.50
2018-02-07T09:35:33.671Z,21.70
2018-02-07T09:36:35.029Z,20.40
2018-02-07T09:37:34.074Z,20.70
2018-02-07T09:38:35.183Z,20.90
2018-02-07T09:39:34.163Z,20.60
2018-02-07T09:40:33.623Z,20.40
2018-02-07T09:41:33.630Z,19.40
2018-02-07T09:43:33.599Z,20.50
2018-02-07T09:44:33.540Z,20.00
2018-02-07T09:45:34.812Z,20.90
2018-02-07T09:46:33.939Z,20.40
2018-02-07T09:47:34.578Z,21.10
2018-02-07T09:48:33.922Z,20.00
2018-02-07T09:49:33.844Z,20.10
2018-02-07T09:50:34.309Z,20.60
2018-02-07T09:52:34.733Z,20.20
2018-02-07T09:55:34.882Z,21.50
2018-02-07T09:56:34.595Z,20.20
2018-02-07T09:57:35.686Z,20.80
2018-02-07T09:58:33.795Z,19.40
2018-02-07T09:59:34.850Z,19.90
2018-02-07T10:00:33.983Z,19.10
2018-02-07T10:01:33.848Z,19.40
2018-02-07T10:03:34.517Z,19.10
2018-02-07T10:04:33.679Z,19.30
2018-02-07T10:05:33.702Z,55.10
2018-02-07T10:06:36.221Z,22.90
2018-02-07T10:07:34.684Z,19.90
2018-02-07T10:09:36.047Z,18.60
2018-02-07T10:10:33.767Z,20.00
2018-02-07T10:11:34.580Z,19.70
2018-02-07T10:12:34.088Z,20.10
2018-02-07T10:13:35.777Z,19.70
2018-02-07T10:14:34.995Z,20.20
2018-02-07T10:16:35.029Z,20.40
2018-02-07T10:17:35.192Z,20.20
2018-02-07T10:18:35.875Z,19.00
2018-02-07T10:21:36.581Z,19.80
2018-02-07T10:22:35.174Z,19.70
2018-02-07T10:23:35.695Z,19.40
2018-02-07T10:24:35.679Z,18.80
2018-02-07T10:26:35.370Z,19.50
2018-02-07T10:27:36.374Z,19.70
2018-02-07T10:28:36.017Z,19.70
2018-02-07T10:29:35.486Z,19.40
2018-02-07T10:30:34.274Z,20.00
2018-02-07T10:31:35.974Z,20.20
2018-02-07T10:32:34.289Z,19.80
2018-02-07T10:33:35.463Z,18.60
2018-02-07T10:34:33.972Z,19.90
2018-02-07T10:35:35.500Z,19.50
2018-02-07T10:36:34.141Z,20.60
2018-02-07T10:37:35.101Z,19.50
2018-02-07T10:38:34.446Z,19.30
2018-02-07T10:39:35.130Z,19.20
2018-02-07T10:40:34.953Z,20.20
2018-02-07T10:42:34.706Z,18.80
2018-02-07T10:43:34.842Z,18.90
2018-02-07T10:44:35.301Z,19.60
2018-02-07T10:45:35.532Z,19.30
2018-02-07T10:47:35.437Z,20.20
2018-02-07T10:48:35.837Z,19.10
2018-02-07T10:49:37.030Z,19.30
2018-02-07T10:50:35.437Z,19.30
2018-02-07T10:52:34.847Z,19.20
2018-02-07T10:53:35.215Z,19.60
2018-02-07T10:54:34.972Z,18.90
2018-02-07T10:55:35.640Z,19.20
2018-02-07T10:56:36.975Z,18.80
2018-02-07T10:57:36.034Z,19.70
2018-02-07T10:58:35.514Z,18.90
2018-02-07T10:59:35.966Z,18.50
2018-02-07T11:01:36.357Z,18.40
2018-02-07T11:03:36.335Z,18.80
2018-02-07T11:04:35.746Z,18.80
2018-02-07T11:05:34.929Z,18.70
2018-02-07T11:06:35.108Z,19.70
2018-02-07T11:07:35.522Z,18.90
2018-02-07T11:08:35.466Z,17.90
2018-02-07T11:10:35.277Z,18.90
2018-02-07T11:11:34.483Z,18.40
2018-02-07T11:12:35.028Z,18.30
2018-02-07T11:13:37.111Z,18.40
2018-02-07T11:14:34.703Z,17.90
2018-02-07T11:15:34.604Z,18.00
2018-02-07T11:16:35.619Z,17.90
2018-02-07T11:17:34.748Z,17.60
2018-02-07T11:18:34.562Z,18.30
2018-02-07T11:19:34.366Z,18.40
2018-02-07T11:21:34.386Z,18.20
2018-02-07T11:22:34.444Z,17.60
2018-02-07T11:23:34.575Z,18.90
2018-02-07T11:24:34.910Z,18.30
2018-02-07T11:25:34.460Z,18.00
2018-02-07T11:26:34.890Z,17.70
2018-02-07T11:27:34.456Z,17.60
2018-02-07T11:28:35.513Z,17.90
2018-02-07T11:29:35.067Z,18.70
2018-02-07T11:31:34.481Z,17.50
2018-02-07T11:32:35.402Z,17.00
2018-02-07T11:33:35.872Z,18.00
2018-02-07T11:35:35.054Z,18.20
2018-02-07T11:36:36.140Z,18.20
2018-02-07T11:37:35.311Z,19.00
2018-02-07T11:39:35.846Z,18.40
2018-02-07T11:40:34.726Z,18.30
2018-02-07T11:41:35.067Z,19.60
2018-02-07T11:42:34.698Z,18.90
2018-02-07T11:43:34.607Z,18.60
2018-02-07T11:44:34.612Z,18.50
2018-02-07T11:45:34.771Z,17.70
2018-02-07T11:46:34.632Z,18.20
2018-02-07T11:47:35.077Z,18.40
2018-02-07T11:48:34.650Z,18.00
2018-02-07T11:49:35.698Z,18.60
2018-02-07T11:50:37.693Z,17.50
2018-02-07T11:51:35.055Z,18.90
2018-02-07T11:52:34.969Z,18.70
2018-02-07T11:53:34.725Z,19.40
2018-02-07T11:55:34.725Z,19.80
2018-02-07T11:56:34.725Z,18.70
2018-02-07T11:57:35.344Z,19.20
2018-02-07T11:58:34.755Z,18.70
2018-02-07T11:59:34.755Z,18.00
2018-02-07T12:00:34.765Z,19.00
2018-02-07T12:01:34.828Z,18.40
2018-02-07T12:02:35.560Z,18.30
2018-02-07T12:03:34.792Z,18.60
2018-02-07T12:04:35.099Z,18.30
2018-02-07T12:05:34.817Z,18.00
2018-02-07T12:06:34.827Z,18.00
2018-02-07T12:07:34.847Z,17.70
2018-02-07T12:08:35.296Z,18.30
2018-02-07T12:09:36.279Z,17.70
2018-02-07T12:11:35.152Z,18.20
2018-02-07T12:12:35.627Z,18.60
2018-02-07T12:13:34.905Z,18.80
2018-02-07T12:14:34.932Z,19.20
2018-02-07T12:15:35.098Z,19.00
2018-02-07T12:16:35.108Z,18.60
2018-02-07T12:17:35.025Z,18.50
2018-02-07T12:18:34.981Z,18.10
2018-02-07T12:19:35.356Z,18.30
2018-02-07T12:20:35.177Z,17.20
2018-02-07T12:21:34.982Z,18.30
2018-02-07T12:22:35.041Z,18.30
2018-02-07T12:24:35.889Z,17.90
2018-02-07T12:25:36.007Z,17.70
2018-02-07T12:26:35.263Z,18.10
2018-02-07T12:27:35.160Z,17.90
2018-02-07T12:28:35.973Z,18.50
2018-02-07T12:30:35.891Z,18.20
2018-02-07T12:31:35.312Z,17.90
2018-02-07T12:33:35.160Z,17.50
2018-02-07T12:34:35.239Z,18.80
2018-02-07T12:36:35.256Z,18.10
2018-02-07T12:37:35.137Z,18.70
2018-02-07T12:40:35.183Z,18.50
2018-02-07T12:41:36.893Z,20.00
2018-02-07T12:42:35.546Z,19.20
2018-02-07T12:43:35.199Z,20.60
2018-02-07T12:45:35.348Z,18.40
2018-02-07T12:46:35.483Z,18.30
2018-02-07T12:47:35.533Z,17.80
2018-02-07T12:48:35.313Z,19.20
2018-02-07T12:49:35.339Z,19.30
2018-02-07T12:50:35.337Z,18.60
2018-02-07T12:51:35.516Z,18.50
2018-02-07T12:52:37.265Z,19.00
2018-02-07T12:54:35.473Z,18.10
2018-02-07T12:59:35.802Z,19.20
2018-02-07T13:01:35.724Z,18.60
2018-02-07T13:03:35.908Z,17.80
2018-02-07T13:04:35.543Z,18.60
2018-02-07T13:05:35.630Z,18.00
2018-02-07T13:06:35.634Z,19.20
2018-02-07T13:07:35.609Z,18.80
2018-02-07T13:08:35.527Z,18.60
2018-02-07T13:09:37.795Z,19.60
2018-02-07T13:11:36.189Z,18.90
2018-02-07T13:12:35.658Z,19.20
2018-02-07T13:13:36.718Z,18.50
2018-02-07T13:14:36.377Z,17.90
2018-02-07T13:17:35.814Z,18.80
2018-02-07T13:18:36.888Z,18.70
2018-02-07T13:20:36.090Z,19.40
2018-02-07T13:21:36.632Z,18.60
2018-02-07T13:24:35.931Z,18.20
2018-02-07T13:26:35.766Z,19.10
2018-02-07T13:27:36.023Z,18.90
2018-02-07T13:29:35.753Z,18.10
2018-02-07T13:33:36.633Z,18.90
2018-02-07T13:34:36.896Z,19.30
2018-02-07T13:35:38.249Z,19.50
2018-02-07T13:36:37.199Z,19.00
2018-02-07T13:38:36.721Z,18.20
2018-02-07T13:41:37.377Z,17.70
2018-02-07T13:42:36.344Z,19.00
2018-02-07T13:43:35.822Z,19.10
2018-02-07T13:44:35.940Z,19.30
2018-02-07T13:45:35.832Z,18.60
2018-02-07T13:48:37.015Z,19.40
2018-02-07T13:49:36.408Z,18.60
2018-02-07T13:50:37.908Z,18.20
2018-02-07T13:51:36.775Z,18.30
2018-02-07T13:52:36.905Z,18.50
2018-02-07T13:53:36.832Z,18.60
2018-02-07T13:54:37.270Z,18.90
2018-02-07T13:55:35.951Z,18.50
2018-02-07T13:56:37.071Z,18.60
2018-02-07T13:57:37.798Z,18.00
2018-02-07T13:59:38.048Z,19.20
2018-02-07T14:01:37.343Z,19.60
2018-02-07T14:03:36.027Z,19.20
2018-02-07T14:04:37.314Z,18.30
2018-02-07T14:06:36.363Z,19.10
2018-02-07T14:07:37.531Z,18.80
2018-02-07T14:09:38.209Z,19.40
2018-02-07T14:12:37.021Z,18.80
2018-02-07T14:13:38.103Z,18.80
2018-02-07T14:14:38.717Z,19.10
2018-02-07T14:15:36.784Z,19.10
2018-02-07T14:16:36.425Z,18.50
2018-02-07T14:17:37.361Z,18.10
2018-02-07T14:18:36.173Z,19.20
2018-02-07T14:19:36.200Z,19.30
2018-02-07T14:20:36.563Z,17.90
2018-02-07T14:21:36.636Z,20.10
2018-02-07T14:23:38.275Z,19.50
2018-02-07T14:24:37.410Z,19.30
2018-02-07T14:25:37.339Z,18.50
2018-02-07T14:26:37.532Z,18.30
2018-02-07T14:27:36.397Z,17.50
2018-02-07T14:28:36.469Z,17.80
2018-02-07T14:29:37.276Z,18.30
2018-02-07T14:30:38.112Z,18.40
2018-02-07T14:31:36.589Z,18.60
2018-02-07T14:32:37.044Z,18.40
2018-02-07T14:33:36.853Z,18.30
2018-02-07T14:37:38.754Z,17.90
2018-02-07T14:40:36.459Z,18.10
2018-02-07T14:41:36.527Z,18.40
2018-02-07T14:42:36.532Z,18.10
2018-02-07T14:43:36.636Z,17.40
2018-02-07T14:45:37.338Z,18.30
2018-02-07T14:46:37.456Z,18.90
2018-02-07T14:47:37.424Z,18.10
2018-02-07T14:48:37.208Z,18.30
2018-02-07T14:49:36.764Z,18.10
2018-02-07T14:50:36.656Z,19.20
2018-02-07T14:51:36.846Z,18.40
2018-02-07T14:52:36.832Z,19.10
2018-02-07T14:53:36.562Z,18.00
2018-02-07T14:54:37.113Z,18.60
2018-02-07T14:55:37.079Z,18.50
2018-02-07T14:56:36.600Z,18.40
2018-02-07T14:57:36.610Z,18.40
2018-02-07T14:58:37.301Z,18.60
2018-02-07T14:59:37.836Z,18.00
2018-02-07T15:00:38.972Z,17.90
2018-02-07T15:04:38.508Z,17.80
2018-02-07T15:06:36.718Z,17.20
2018-02-07T15:07:36.972Z,17.00
2018-02-07T15:09:36.720Z,17.10
2018-02-07T15:10:36.709Z,16.70
2018-02-07T15:11:38.592Z,17.10
2018-02-07T15:13:36.779Z,16.50
2018-02-07T15:14:38.734Z,17.00
2018-02-07T15:15:36.810Z,16.90
2018-02-07T15:19:38.723Z,16.30
2018-02-07T15:20:39.388Z,16.40
2018-02-07T15:21:38.619Z,16.70
2018-02-07T15:22:39.374Z,16.90
2018-02-07T15:24:37.330Z,16.30
2018-02-07T15:25:37.334Z,15.80
2018-02-07T15:26:37.458Z,15.80
2018-02-07T15:27:37.256Z,16.10
2018-02-07T15:28:36.927Z,16.00
2018-02-07T15:29:36.913Z,15.80
2018-02-07T15:30:36.910Z,15.50
2018-02-07T15:32:38.516Z,15.80
2018-02-07T15:33:36.962Z,15.80
2018-02-07T15:36:37.926Z,16.30
2018-02-07T15:37:36.976Z,15.10
2018-02-07T15:38:38.028Z,16.50
2018-02-07T15:39:39.875Z,16.80
2018-02-07T15:40:37.199Z,15.50
2018-02-07T15:41:37.033Z,15.60
2018-02-07T15:44:37.557Z,15.50
2018-02-07T15:45:37.058Z,15.20
2018-02-07T15:46:37.065Z,14.30
2018-02-07T15:47:38.034Z,14.70
2018-02-07T15:48:37.096Z,15.60
2018-02-07T15:50:37.110Z,15.70
2018-02-07T15:51:37.655Z,16.00
2018-02-07T15:52:37.417Z,14.90
2018-02-07T15:53:37.234Z,15.30
2018-02-07T15:54:37.144Z,15.50
2018-02-07T15:55:37.850Z,15.30
2018-02-07T15:56:37.717Z,15.60
2018-02-07T15:57:37.917Z,15.30
2018-02-07T15:58:37.272Z,14.90
2018-02-07T15:59:37.505Z,14.30
2018-02-07T16:01:37.481Z,15.40
2018-02-07T16:02:37.434Z,15.30
2018-02-07T16:03:37.232Z,14.60
2018-02-07T16:04:38.458Z,15.40
2018-02-07T16:05:37.383Z,15.30
2018-02-07T16:06:37.304Z,15.40
2018-02-07T16:07:37.665Z,15.30
2018-02-07T16:08:37.285Z,15.70
2018-02-07T16:09:38.065Z,15.40
2018-02-07T16:10:37.347Z,16.20
2018-02-07T16:11:37.327Z,16.00
2018-02-07T16:12:37.317Z,16.00
2018-02-07T16:13:38.480Z,16.30
2018-02-07T16:14:37.355Z,16.60
2018-02-07T16:15:37.417Z,16.20
2018-02-07T16:16:37.366Z,16.80
2018-02-07T16:17:38.874Z,15.60
2018-02-07T16:18:37.851Z,16.70
2018-02-07T16:19:39.059Z,16.20
2018-02-07T16:21:37.836Z,17.00
2018-02-07T16:22:38.624Z,15.80
2018-02-07T16:23:37.616Z,15.40
2018-02-07T16:24:38.087Z,16.10
2018-02-07T16:25:39.619Z,16.60
2018-02-07T16:26:38.017Z,17.20
2018-02-07T16:27:37.465Z,16.60
2018-02-07T16:29:38.030Z,16.90
2018-02-07T16:30:37.535Z,15.70
2018-02-07T16:31:38.042Z,16.30